Time;durP1;ratioP1;P1;durP2;ratioP2;P2;SDS_P1;SDS_P2;PMS_P1;PMS_P2;Temp;Humidity;BMP_temperature;BMP_pressure;BME280_temperature;BME280_humidity;BME280_pressure;Samples;Min_cycle;Max_cycle;Signal;HPM_P1;HPM_P2
2022/03/05 00:02:05;;;;;;;18.17;9.38;;;;;;;;;;5071208;28;20037;-71
2022/03/05 00:04:30;;;;;;;20.80;9.75;;;;;;;;;;5072139;28;20477;-71
2022/03/05 00:06:56;;;;;;;19.85;9.55;;;;;;;;;;5072043;28;20067;-72
2022/03/05 00:09:21;;;;;;;21.17;9.63;;;;;;;;;;5071867;28;20046;-72
2022/03/05 00:11:46;;;;;;;21.23;9.82;;;;;;;;;;5060456;28;20066;-71
2022/03/05 00:14:12;;;;;;;24.25;10.52;;;;;;;;;;5058737;28;20454;-70
2022/03/05 00:16:38;;;;;;;21.83;10.98;;;;;;;;;;5065128;28;20086;-69
2022/03/05 00:19:03;;;;;;;24.73;10.57;;;;;;;;;;5070545;28;20400;-72
2022/03/05 00:21:28;;;;;;;21.75;10.15;;;;;;;;;;5071757;28;20541;-71
2022/03/05 00:23:53;;;;;;;24.15;10.45;;;;;;;;;;5075112;28;20016;-71
2022/03/05 00:26:18;;;;;;;20.75;10.63;;;;;;;;;;5071903;28;20036;-71
2022/03/05 00:28:43;;;;;;;22.98;10.88;;;;;;;;;;5070073;28;20024;-71
2022/03/05 00:31:09;;;;;;;21.92;10.45;;;;;;;;;;5070731;28;20103;-71
2022/03/05 00:33:34;;;;;;;22.23;10.57;;;;;;;;;;5071520;28;20025;-71
2022/03/05 00:35:59;;;;;;;24.98;10.82;;;;;;;;;;5069263;28;20480;-71
2022/03/05 00:38:25;;;;;;;22.67;9.80;;;;;;;;;;5060869;28;20029;-72
2022/03/05 00:40:50;;;;;;;19.25;9.90;;;;;;;;;;5051303;28;20021;-72
2022/03/05 00:43:15;;;;;;;18.75;9.63;;;;;;;;;;5058018;28;20027;-72
2022/03/05 00:45:40;;;;;;;20.42;11.00;;;;;;;;;;5071314;28;20021;-70
2022/03/05 00:48:07;;;;;;;21.83;10.50;;;;;;;;;;5070031;28;20078;-71
2022/03/05 00:50:32;;;;;;;23.10;10.90;;;;;;;;;;5069835;28;20040;-70
2022/03/05 00:52:57;;;;;;;22.85;11.52;;;;;;;;;;5071225;28;20413;-71
2022/03/05 00:55:22;;;;;;;24.60;11.77;;;;;;;;;;5071155;28;20028;-71
2022/03/05 00:57:47;;;;;;;24.83;12.63;;;;;;;;;;5059009;28;20044;-72
2022/03/05 01:00:13;;;;;;;23.77;11.40;;;;;;;;;;5049775;28;20028;-70
2022/03/05 01:02:39;;;;;;;21.20;10.25;;;;;;;;;;5066265;28;20055;-72
2022/03/05 01:05:04;;;;;;;23.90;11.30;;;;;;;;;;5050989;28;20057;-71
2022/03/05 01:07:29;;;;;;;26.23;11.25;;;;;;;;;;5050813;28;20025;-71
2022/03/05 01:09:54;;;;;;;25.33;12.02;;;;;;;;;;5066519;28;20025;-71
2022/03/05 01:12:21;;;;;;;20.73;11.13;;;;;;;;;;5050935;28;20032;-71
2022/03/05 01:14:46;;;;;;;24.73;12.02;;;;;;;;;;5049578;28;20663;-71
2022/03/05 01:17:12;;;;;;;23.63;12.18;;;;;;;;;;5050720;28;20059;-70
2022/03/05 01:19:37;;;;;;;23.40;12.25;;;;;;;;;;5050636;28;20060;-71
2022/03/05 01:22:02;;;;;;;23.75;12.07;;;;;;;;;;5068570;28;20037;-70
2022/03/05 01:24:27;;;;;;;19.92;11.05;;;;;;;;;;5070479;28;20029;-71
2022/03/05 01:26:52;;;;;;;26.67;11.70;;;;;;;;;;5070704;28;20435;-72
2022/03/05 01:29:18;;;;;;;24.17;12.40;;;;;;;;;;5064530;28;20478;-72
2022/03/05 01:31:43;;;;;;;31.30;13.55;;;;;;;;;;5065072;28;20040;-71
2022/03/05 01:34:08;;;;;;;26.20;12.57;;;;;;;;;;5050344;28;20032;-72
2022/03/05 01:36:33;;;;;;;24.17;12.60;;;;;;;;;;5050489;28;20696;-71
2022/03/05 01:38:58;;;;;;;26.67;12.38;;;;;;;;;;5050487;28;20053;-72
2022/03/05 01:41:24;;;;;;;26.63;13.50;;;;;;;;;;5066122;28;20029;-72
2022/03/05 01:43:52;;;;;;;32.03;14.20;;;;;;;;;;5050462;28;20027;-70
2022/03/05 01:46:30;;;;;;;25.17;12.57;;;;;;;;;;5050428;28;20033;-71
2022/03/05 01:48:55;;;;;;;30.35;14.07;;;;;;;;;;5050031;28;20029;-71
2022/03/05 01:51:20;;;;;;;26.67;12.80;;;;;;;;;;5050357;28;20420;-71
2022/03/05 01:53:45;;;;;;;31.52;14.00;;;;;;;;;;5067632;28;20028;-71
2022/03/05 01:56:11;;;;;;;30.38;14.13;;;;;;;;;;5070604;28;20044;-72
2022/03/05 01:58:37;;;;;;;27.52;13.45;;;;;;;;;;5059228;28;20031;-72
2022/03/05 02:01:02;;;;;;;25.05;13.27;;;;;;;;;;5068127;28;20132;-71
2022/03/05 02:03:28;;;;;;;26.00;13.25;;;;;;;;;;5068923;28;20024;-71
2022/03/05 02:05:53;;;;;;;30.58;13.75;;;;;;;;;;5068964;28;20085;-70
2022/03/05 02:08:19;;;;;;;31.38;14.38;;;;;;;;;;5070128;28;20074;-71
2022/03/05 02:10:44;;;;;;;32.92;14.77;;;;;;;;;;5069058;28;20679;-71
2022/03/05 02:13:09;;;;;;;27.95;14.10;;;;;;;;;;5071565;28;20481;-72
2022/03/05 02:15:34;;;;;;;27.80;14.27;;;;;;;;;;5074167;28;20035;-72
2022/03/05 02:18:00;;;;;;;27.45;13.55;;;;;;;;;;5072915;28;20096;-71
2022/03/05 02:20:28;;;;;;;25.80;13.52;;;;;;;;;;5073796;28;20020;-72
2022/03/05 02:22:55;;;;;;;31.60;14.77;;;;;;;;;;5063907;28;20032;-69
2022/03/05 02:25:20;;;;;;;31.20;15.20;;;;;;;;;;5074122;28;20032;-70
2022/03/05 02:27:45;;;;;;;31.45;15.10;;;;;;;;;;5069198;28;20096;-71
2022/03/05 02:30:10;;;;;;;36.45;16.08;;;;;;;;;;5065915;28;20027;-70
2022/03/05 02:32:35;;;;;;;30.75;15.43;;;;;;;;;;5073936;28;20024;-72
2022/03/05 02:35:01;;;;;;;34.20;15.43;;;;;;;;;;5056171;28;20021;-71
2022/03/05 02:37:26;;;;;;;28.45;14.00;;;;;;;;;;5053753;28;20511;-71
2022/03/05 02:39:51;;;;;;;30.23;14.55;;;;;;;;;;5053494;28;20025;-72
2022/03/05 02:42:17;;;;;;;31.90;15.18;;;;;;;;;;5053705;28;20086;-72
2022/03/05 02:44:42;;;;;;;32.80;15.90;;;;;;;;;;5072001;28;20446;-71
2022/03/05 02:47:08;;;;;;;30.60;14.90;;;;;;;;;;5073539;28;20052;-71
2022/03/05 02:49:33;;;;;;;30.17;15.25;;;;;;;;;;5073371;28;20024;-72
2022/03/05 02:51:58;;;;;;;33.05;14.77;;;;;;;;;;5073339;28;20020;-71
2022/03/05 02:54:23;;;;;;;31.23;15.85;;;;;;;;;;5070043;28;20108;-72
2022/03/05 02:56:48;;;;;;;35.17;14.80;;;;;;;;;;5053412;28;20032;-72
2022/03/05 02:59:14;;;;;;;30.60;14.68;;;;;;;;;;5065853;28;20409;-72
2022/03/05 03:01:39;;;;;;;32.42;15.30;;;;;;;;;;5072322;28;20035;-71
2022/03/05 03:04:04;;;;;;;30.92;14.60;;;;;;;;;;5073267;28;20531;-71
2022/03/05 03:06:29;;;;;;;28.83;14.43;;;;;;;;;;5072071;28;20024;-72
2022/03/05 03:08:55;;;;;;;32.72;15.32;;;;;;;;;;5073038;28;20056;-71
2022/03/05 03:11:20;;;;;;;33.67;15.77;;;;;;;;;;5073099;28;20043;-71
2022/03/05 03:13:45;;;;;;;31.15;14.82;;;;;;;;;;5073038;28;20022;-70
2022/03/05 03:16:10;;;;;;;33.03;14.75;;;;;;;;;;5073111;28;20020;-71
2022/03/05 03:18:35;;;;;;;33.60;15.73;;;;;;;;;;5072831;28;20499;-71
2022/03/05 03:21:00;;;;;;;38.20;16.20;;;;;;;;;;5073166;28;20024;-71
2022/03/05 03:23:26;;;;;;;34.42;16.10;;;;;;;;;;5072349;28;20025;-71
2022/03/05 03:25:51;;;;;;;31.90;15.70;;;;;;;;;;5072881;28;20135;-71
2022/03/05 03:28:16;;;;;;;33.25;15.70;;;;;;;;;;5071274;28;20020;-71
2022/03/05 03:30:41;;;;;;;32.35;15.10;;;;;;;;;;5071842;28;20032;-71
2022/03/05 03:33:07;;;;;;;30.25;14.85;;;;;;;;;;5072745;28;20031;-71
2022/03/05 03:35:32;;;;;;;27.88;14.73;;;;;;;;;;5072785;28;20171;-72
2022/03/05 03:37:57;;;;;;;30.25;15.10;;;;;;;;;;5072531;28;20649;-71
2022/03/05 03:40:22;;;;;;;48.28;15.75;;;;;;;;;;5072625;28;20052;-72
2022/03/05 03:42:48;;;;;;;29.55;14.48;;;;;;;;;;5072527;28;20028;-72
2022/03/05 03:45:14;;;;;;;28.40;14.55;;;;;;;;;;5072694;28;20100;-71
2022/03/05 03:47:39;;;;;;;36.00;15.43;;;;;;;;;;5071264;28;20108;-70
2022/03/05 03:50:05;;;;;;;32.97;14.73;;;;;;;;;;5072348;28;20025;-72
2022/03/05 03:52:30;;;;;;;37.22;16.50;;;;;;;;;;5072497;28;20025;-72
2022/03/05 03:54:55;;;;;;;30.98;14.40;;;;;;;;;;5070892;28;20024;-71
2022/03/05 03:57:21;;;;;;;34.55;15.40;;;;;;;;;;5057851;28;20025;-70
2022/03/05 03:59:47;;;;;;;28.95;15.13;;;;;;;;;;5052187;28;20446;-71
2022/03/05 04:02:12;;;;;;;31.63;14.10;;;;;;;;;;5051426;28;20033;-72
2022/03/05 04:04:37;;;;;;;31.27;15.18;;;;;;;;;;5068483;28;20452;-72
2022/03/05 04:09:46;;;;;;;33.67;15.55;;;;;;;;;;5052319;28;20509;-72
2022/03/05 04:12:11;;;;;;;32.03;15.48;;;;;;;;;;5072321;28;20021;-71
2022/03/05 04:14:38;;;;;;;35.25;15.68;;;;;;;;;;5071871;28;20087;-72
2022/03/05 04:17:03;;;;;;;30.80;14.80;;;;;;;;;;5072018;28;20028;-70
2022/03/05 04:19:28;;;;;;;29.30;14.50;;;;;;;;;;5071919;28;20492;-71
2022/03/05 04:21:54;;;;;;;31.63;14.60;;;;;;;;;;5070455;28;20051;-72
2022/03/05 04:24:19;;;;;;;32.30;14.75;;;;;;;;;;5071876;28;20028;-72
2022/03/05 04:26:44;;;;;;;33.78;15.70;;;;;;;;;;5071812;28;20027;-70
2022/03/05 04:29:09;;;;;;;33.78;15.70;;;;;;;;;;5070094;28;20027;-72
2022/03/05 04:31:34;;;;;;;31.02;14.68;;;;;;;;;;5070752;28;20059;-72
2022/03/05 04:34:00;;;;;;;33.47;15.07;;;;;;;;;;5051937;28;20060;-72
2022/03/05 04:36:25;;;;;;;31.83;14.13;;;;;;;;;;5049757;28;20029;-72
2022/03/05 04:38:50;;;;;;;33.25;14.93;;;;;;;;;;5051331;28;20491;-71
2022/03/05 04:41:15;;;;;;;35.05;15.20;;;;;;;;;;5051750;28;20037;-70
2022/03/05 04:43:40;;;;;;;30.08;15.65;;;;;;;;;;5051324;28;20062;-71
2022/03/05 04:46:05;;;;;;;36.13;15.85;;;;;;;;;;5051342;28;20021;-70
2022/03/05 04:48:31;;;;;;;33.95;15.77;;;;;;;;;;5066694;28;20077;-72
2022/03/05 04:50:56;;;;;;;33.40;15.63;;;;;;;;;;5051515;28;20077;-71
2022/03/05 04:53:21;;;;;;;31.98;15.80;;;;;;;;;;5069897;28;20499;-72
2022/03/05 04:55:49;;;;;;;39.10;16.02;;;;;;;;;;5052003;28;20032;-71
2022/03/05 04:58:14;;;;;;;28.77;14.50;;;;;;;;;;5051115;28;20021;-70
2022/03/05 05:00:39;;;;;;;30.95;14.82;;;;;;;;;;5050492;28;20044;-71
2022/03/05 05:03:05;;;;;;;30.15;14.65;;;;;;;;;;5061120;28;20027;-71
2022/03/05 05:05:30;;;;;;;37.25;15.77;;;;;;;;;;5071008;28;20016;-71
2022/03/05 05:07:55;;;;;;;34.35;16.27;;;;;;;;;;5070708;28;20020;-72
2022/03/05 05:10:21;;;;;;;33.03;15.15;;;;;;;;;;5069584;28;20066;-70
2022/03/05 05:12:46;;;;;;;26.98;14.23;;;;;;;;;;5070650;28;20094;-72
2022/03/05 05:15:11;;;;;;;35.00;15.50;;;;;;;;;;5070892;28;20103;-70
2022/03/05 05:17:37;;;;;;;29.60;14.27;;;;;;;;;;5070660;28;20100;-71
2022/03/05 05:20:03;;;;;;;31.83;14.88;;;;;;;;;;5070572;28;20542;-72
2022/03/05 05:22:29;;;;;;;31.48;15.25;;;;;;;;;;5070832;28;20020;-71
2022/03/05 05:24:55;;;;;;;31.80;16.10;;;;;;;;;;5066092;28;20024;-72
2022/03/05 05:27:20;;;;;;;32.15;15.50;;;;;;;;;;5053264;28;20035;-71
2022/03/05 05:29:45;;;;;;;33.88;15.32;;;;;;;;;;5051749;28;20474;-72
2022/03/05 05:32:10;;;;;;;29.33;15.57;;;;;;;;;;5050786;28;20037;-71
2022/03/05 05:34:36;;;;;;;31.02;15.48;;;;;;;;;;5050399;28;20367;-72
2022/03/05 05:37:01;;;;;;;36.83;16.55;;;;;;;;;;5066145;28;20043;-72
2022/03/05 05:39:26;;;;;;;31.80;15.35;;;;;;;;;;5064301;28;20012;-72
2022/03/05 05:41:51;;;;;;;34.58;14.77;;;;;;;;;;5059430;28;20025;-72
2022/03/05 05:44:17;;;;;;;34.45;15.55;;;;;;;;;;5060132;28;20033;-73
2022/03/05 05:46:42;;;;;;;37.45;16.25;;;;;;;;;;5057407;28;20514;-73
2022/03/05 05:49:07;;;;;;;33.78;15.45;;;;;;;;;;5057936;28;20064;-72
2022/03/05 05:51:32;;;;;;;33.50;14.98;;;;;;;;;;5061222;28;20041;-72
2022/03/05 05:53:58;;;;;;;37.72;15.75;;;;;;;;;;5063071;28;20029;-71
2022/03/05 05:56:23;;;;;;;37.83;15.88;;;;;;;;;;5067067;28;20040;-73
2022/03/05 05:58:49;;;;;;;37.28;15.20;;;;;;;;;;5061921;28;20051;-72
2022/03/05 06:01:15;;;;;;;34.20;15.52;;;;;;;;;;5063309;28;20047;-70
2022/03/05 06:03:40;;;;;;;33.75;15.27;;;;;;;;;;5065765;28;20032;-71
2022/03/05 06:06:06;;;;;;;30.45;14.65;;;;;;;;;;5064577;28;20020;-71
2022/03/05 06:08:31;;;;;;;30.98;15.88;;;;;;;;;;5059077;28;20024;-70
2022/03/05 06:10:57;;;;;;;33.50;15.75;;;;;;;;;;5062761;28;20539;-71
2022/03/05 06:13:22;;;;;;;39.38;16.70;;;;;;;;;;5059744;28;20025;-71
2022/03/05 06:15:47;;;;;;;33.47;15.82;;;;;;;;;;5057411;28;20036;-71
2022/03/05 06:18:12;;;;;;;38.90;16.05;;;;;;;;;;5058755;28;20695;-71
2022/03/05 06:20:38;;;;;;;33.15;15.52;;;;;;;;;;5046469;28;20035;-69
2022/03/05 06:23:03;;;;;;;36.35;15.85;;;;;;;;;;5064672;28;20067;-71
2022/03/05 06:25:28;;;;;;;34.55;15.65;;;;;;;;;;5061945;28;20016;-71
2022/03/05 06:27:53;;;;;;;35.67;16.50;;;;;;;;;;5060859;28;20409;-71
2022/03/05 06:30:18;;;;;;;34.00;16.50;;;;;;;;;;5060144;28;20021;-71
2022/03/05 06:32:43;;;;;;;33.10;15.32;;;;;;;;;;5056865;28;20031;-71
2022/03/05 06:35:09;;;;;;;30.23;15.13;;;;;;;;;;5058004;28;20098;-71
2022/03/05 06:37:34;;;;;;;32.58;15.75;;;;;;;;;;5059875;28;20525;-71
2022/03/05 06:40:00;;;;;;;34.58;15.63;;;;;;;;;;5061938;28;20012;-71
2022/03/05 06:42:26;;;;;;;34.65;16.50;;;;;;;;;;5057017;28;20021;-71
2022/03/05 06:44:51;;;;;;;33.10;16.00;;;;;;;;;;5061099;28;20027;-71
2022/03/05 06:47:16;;;;;;;38.88;16.30;;;;;;;;;;5058891;28;20381;-72
2022/03/05 06:49:42;;;;;;;35.22;16.13;;;;;;;;;;5063079;28;20703;-72
2022/03/05 06:52:07;;;;;;;34.67;16.30;;;;;;;;;;5048557;28;20566;-72
2022/03/05 06:54:32;;;;;;;38.28;17.88;;;;;;;;;;5063473;28;20025;-72
2022/03/05 06:56:57;;;;;;;32.95;16.45;;;;;;;;;;5063197;28;20028;-72
2022/03/05 06:59:22;;;;;;;39.15;17.08;;;;;;;;;;5060994;28;20056;-70
2022/03/05 07:01:48;;;;;;;35.05;16.30;;;;;;;;;;5066332;28;20036;-73
2022/03/05 07:04:13;;;;;;;35.25;16.58;;;;;;;;;;5083640;28;20033;-72
2022/03/05 07:06:38;;;;;;;33.30;16.38;;;;;;;;;;5063510;28;20033;-71
2022/03/05 07:09:04;;;;;;;30.40;16.25;;;;;;;;;;5063074;28;20033;-72
2022/03/05 07:11:29;;;;;;;35.58;16.80;;;;;;;;;;5063237;28;20017;-72
2022/03/05 07:13:54;;;;;;;32.15;16.83;;;;;;;;;;5063894;28;20032;-73
2022/03/05 07:16:19;;;;;;;32.35;15.93;;;;;;;;;;5065423;28;20024;-72
2022/03/05 07:18:44;;;;;;;32.33;16.98;;;;;;;;;;5062615;28;20106;-73
2022/03/05 07:21:10;;;;;;;36.42;16.92;;;;;;;;;;5061167;28;20043;-73
2022/03/05 07:23:35;;;;;;;33.15;16.45;;;;;;;;;;5062935;28;20016;-72
2022/03/05 07:26:00;;;;;;;31.88;15.85;;;;;;;;;;5065931;28;20017;-72
2022/03/05 07:28:25;;;;;;;32.17;16.08;;;;;;;;;;5067976;28;20085;-72
2022/03/05 07:30:51;;;;;;;34.25;15.40;;;;;;;;;;5067557;28;20059;-73
2022/03/05 07:33:17;;;;;;;31.25;15.18;;;;;;;;;;5061098;28;20119;-72
2022/03/05 07:35:42;;;;;;;27.85;13.75;;;;;;;;;;5044258;28;20112;-72
2022/03/05 07:38:07;;;;;;;29.02;14.65;;;;;;;;;;5069866;28;20013;-73
2022/03/05 07:40:32;;;;;;;26.65;13.25;;;;;;;;;;5065783;28;20024;-72
2022/03/05 07:42:58;;;;;;;33.28;13.07;;;;;;;;;;5065225;28;20029;-72
2022/03/05 07:45:23;;;;;;;30.08;14.13;;;;;;;;;;5063407;28;20115;-72
2022/03/05 07:47:48;;;;;;;25.90;13.20;;;;;;;;;;5066309;28;20029;-72
2022/03/05 07:50:13;;;;;;;31.00;13.82;;;;;;;;;;5064629;28;20025;-70
2022/03/05 07:52:38;;;;;;;24.40;12.75;;;;;;;;;;5067028;28;20028;-72
2022/03/05 07:55:04;;;;;;;28.20;13.32;;;;;;;;;;5066732;28;20515;-71
2022/03/05 07:57:31;;;;;;;31.95;13.27;;;;;;;;;;5065722;28;20021;-72
2022/03/05 07:59:56;;;;;;;35.03;13.85;;;;;;;;;;5067108;28;20017;-71
2022/03/05 08:02:21;;;;;;;27.13;14.25;;;;;;;;;;5064892;28;20039;-72
2022/03/05 08:04:47;;;;;;;30.13;14.18;;;;;;;;;;5064596;28;20013;-71
2022/03/05 08:07:13;;;;;;;24.98;13.10;;;;;;;;;;5061786;28;20528;-71
2022/03/05 08:09:38;;;;;;;29.38;13.77;;;;;;;;;;5064129;28;20064;-71
2022/03/05 08:12:03;;;;;;;31.63;14.98;;;;;;;;;;5065381;28;20414;-72
2022/03/05 08:14:29;;;;;;;24.73;13.07;;;;;;;;;;5067434;28;20032;-71
2022/03/05 08:16:54;;;;;;;29.77;14.50;;;;;;;;;;5064814;28;20500;-72
2022/03/05 08:19:19;;;;;;;30.45;14.73;;;;;;;;;;5067445;28;20032;-72
2022/03/05 08:21:44;;;;;;;31.05;14.82;;;;;;;;;;5067413;28;20024;-72
2022/03/05 08:24:10;;;;;;;29.10;13.68;;;;;;;;;;5064866;28;20027;-72
2022/03/05 08:26:36;;;;;;;27.38;14.13;;;;;;;;;;5064924;28;20028;-70
2022/03/05 08:29:01;;;;;;;28.63;13.52;;;;;;;;;;5066199;28;20036;-72
2022/03/05 08:31:27;;;;;;;27.60;13.55;;;;;;;;;;5063312;28;20520;-72
2022/03/05 08:33:52;;;;;;;32.22;13.98;;;;;;;;;;5063789;28;20028;-71
2022/03/05 08:36:18;;;;;;;24.75;13.75;;;;;;;;;;5067486;28;20042;-73
2022/03/05 08:38:43;;;;;;;26.92;14.10;;;;;;;;;;5065499;28;20048;-72
2022/03/05 08:41:08;;;;;;;28.23;13.60;;;;;;;;;;5067540;28;20485;-72
2022/03/05 08:43:34;;;;;;;26.70;13.30;;;;;;;;;;5062644;28;20035;-72
2022/03/05 08:46:01;;;;;;;33.60;13.43;;;;;;;;;;5044997;28;20035;-73
2022/03/05 08:48:26;;;;;;;27.95;13.57;;;;;;;;;;5065768;28;21277;-71
2022/03/05 08:50:51;;;;;;;23.65;12.55;;;;;;;;;;5063063;28;20515;-73
2022/03/05 08:53:16;;;;;;;26.63;12.95;;;;;;;;;;5066807;28;20020;-72
2022/03/05 08:55:42;;;;;;;30.23;13.38;;;;;;;;;;5067867;28;20020;-71
2022/03/05 08:58:07;;;;;;;23.15;12.18;;;;;;;;;;5082187;28;20560;-72
2022/03/05 09:00:32;;;;;;;28.90;13.15;;;;;;;;;;5064754;28;20025;-72
2022/03/05 09:02:57;;;;;;;19.83;11.32;;;;;;;;;;5066671;28;20016;-72
2022/03/05 09:05:23;;;;;;;26.75;13.43;;;;;;;;;;5066432;28;20024;-71
2022/03/05 09:07:48;;;;;;;23.50;12.98;;;;;;;;;;5063591;28;20489;-70
2022/03/05 09:10:13;;;;;;;26.67;12.85;;;;;;;;;;5063046;28;20028;-72
2022/03/05 09:12:38;;;;;;;25.08;12.43;;;;;;;;;;5065445;28;20047;-71
2022/03/05 09:15:04;;;;;;;22.13;11.57;;;;;;;;;;5067383;28;20385;-72
2022/03/05 09:17:30;;;;;;;22.88;11.88;;;;;;;;;;5067372;28;20043;-71
2022/03/05 09:19:55;;;;;;;21.05;11.63;;;;;;;;;;5067647;28;20021;-71
2022/03/05 09:22:20;;;;;;;27.20;13.85;;;;;;;;;;5063542;28;20029;-72
2022/03/05 09:24:45;;;;;;;24.98;12.52;;;;;;;;;;5063211;28;20024;-72
2022/03/05 09:27:11;;;;;;;25.52;12.70;;;;;;;;;;5064822;28;20036;-72
2022/03/05 09:29:36;;;;;;;25.13;11.93;;;;;;;;;;5062157;28;20032;-71
2022/03/05 09:32:02;;;;;;;24.90;12.75;;;;;;;;;;5064607;28;20040;-72
2022/03/05 09:34:28;;;;;;;25.88;13.02;;;;;;;;;;5061913;28;20032;-71
2022/03/05 09:36:53;;;;;;;26.67;13.20;;;;;;;;;;5065476;28;20072;-73
2022/03/05 09:39:19;;;;;;;23.73;12.05;;;;;;;;;;5062051;28;20353;-70
2022/03/05 09:41:44;;;;;;;27.00;12.93;;;;;;;;;;5058736;28;20020;-72
2022/03/05 09:44:09;;;;;;;24.50;11.77;;;;;;;;;;5063841;28;20028;-71
2022/03/05 09:46:34;;;;;;;23.75;12.20;;;;;;;;;;5064883;28;20020;-72
2022/03/05 09:49:00;;;;;;;26.90;13.18;;;;;;;;;;5061798;28;20052;-72
2022/03/05 09:51:25;;;;;;;21.90;11.13;;;;;;;;;;5063838;28;20374;-71
2022/03/05 09:53:53;;;;;;;23.25;11.57;;;;;;;;;;5063026;28;20644;-72
2022/03/05 09:56:18;;;;;;;24.88;12.20;;;;;;;;;;5064246;28;20428;-71
2022/03/05 09:58:43;;;;;;;26.17;12.48;;;;;;;;;;5062269;28;20074;-71
2022/03/05 10:01:09;;;;;;;22.13;11.27;;;;;;;;;;5060013;28;20069;-72
2022/03/05 10:03:44;;;;;;;23.25;11.55;;;;;;;;;;5049814;28;20527;-70
2022/03/05 10:06:19;;;;;;;19.42;10.82;;;;;;;;;;5064487;28;20361;-71
2022/03/05 10:08:44;;;;;;;23.17;11.38;;;;;;;;;;5066578;28;20105;-72
2022/03/05 10:11:11;;;;;;;25.45;12.68;;;;;;;;;;5064756;28;20036;-72
2022/03/05 10:13:37;;;;;;;21.42;11.57;;;;;;;;;;5060319;28;20043;-72
2022/03/05 10:16:03;;;;;;;24.13;12.13;;;;;;;;;;5063182;28;20032;-72
2022/03/05 10:18:35;;;;;;;22.98;10.23;;;;;;;;;;5065121;28;20928;-71
2022/03/05 10:21:01;;;;;;;22.05;9.43;;;;;;;;;;5063005;28;20272;-72
2022/03/05 10:23:30;;;;;;;21.13;10.18;;;;;;;;;;5061695;28;20485;-72
2022/03/05 10:25:55;;;;;;;22.48;10.15;;;;;;;;;;5064687;28;20083;-71
2022/03/05 10:28:25;;;;;;;17.25;9.35;;;;;;;;;;5066131;28;20489;-72
2022/03/05 10:31:04;;;;;;;20.13;10.10;;;;;;;;;;5040728;28;20532;-71
2022/03/05 10:33:30;;;;;;;21.88;10.02;;;;;;;;;;5063994;28;20078;-72
2022/03/05 10:35:56;;;;;;;23.15;10.43;;;;;;;;;;5064470;28;20473;-72
2022/03/05 10:38:22;;;;;;;19.23;9.57;;;;;;;;;;5063978;28;20785;-71
2022/03/05 10:40:54;;;;;;;18.13;9.27;;;;;;;;;;5063727;28;20066;-72
2022/03/05 10:43:20;;;;;;;19.02;9.95;;;;;;;;;;5068239;28;20048;-72
2022/03/05 10:45:55;;;;;;;16.52;8.95;;;;;;;;;;5069648;28;20436;-72
2022/03/05 10:48:22;;;;;;;17.60;9.18;;;;;;;;;;5065713;28;20028;-70
2022/03/05 10:50:47;;;;;;;18.42;8.35;;;;;;;;;;5067624;28;20075;-72
2022/03/05 10:53:13;;;;;;;16.23;7.82;;;;;;;;;;5050908;28;20064;-72
2022/03/05 10:55:38;;;;;;;15.40;8.80;;;;;;;;;;5067298;28;20157;-72
2022/03/05 10:58:13;;;;;;;17.23;8.40;;;;;;;;;;5066096;28;20421;-72
2022/03/05 11:00:39;;;;;;;20.02;8.27;;;;;;;;;;5065556;28;20036;-72
2022/03/05 11:03:04;;;;;;;16.02;7.53;;;;;;;;;;5051408;28;20086;-71
2022/03/05 11:05:30;;;;;;;19.20;8.95;;;;;;;;;;5067306;28;20473;-70
2022/03/05 11:07:55;;;;;;;17.35;8.63;;;;;;;;;;5062529;28;20023;-72
2022/03/05 11:10:23;;;;;;;19.08;9.48;;;;;;;;;;5051328;28;20028;-71
2022/03/05 11:12:52;;;;;;;14.85;9.30;;;;;;;;;;5065054;28;20526;-72
2022/03/05 11:15:20;;;;;;;19.67;9.40;;;;;;;;;;5031995;28;20060;-72
2022/03/05 11:17:46;;;;;;;18.20;9.23;;;;;;;;;;5060659;28;20068;-71
2022/03/05 11:20:12;;;;;;;16.42;8.13;;;;;;;;;;5065753;28;20017;-72
2022/03/05 11:22:38;;;;;;;15.70;8.25;;;;;;;;;;5062534;28;20031;-72
2022/03/05 11:25:03;;;;;;;15.18;7.82;;;;;;;;;;5069217;28;20070;-71
2022/03/05 11:27:29;;;;;;;13.63;7.43;;;;;;;;;;5051972;28;20033;-72
2022/03/05 11:29:58;;;;;;;15.98;7.97;;;;;;;;;;5033520;28;20043;-72
2022/03/05 11:32:31;;;;;;;16.70;7.90;;;;;;;;;;5064422;28;20493;-72
2022/03/05 11:34:56;;;;;;;13.25;7.90;;;;;;;;;;5066378;28;21515;-71
2022/03/05 11:37:35;;;;;;;16.13;7.97;;;;;;;;;;5069588;28;20032;-69
2022/03/05 11:40:02;;;;;;;14.63;7.93;;;;;;;;;;5063453;28;20020;-71
2022/03/05 11:42:31;;;;;;;15.07;7.85;;;;;;;;;;5063703;28;20035;-70
2022/03/05 11:44:57;;;;;;;18.38;8.18;;;;;;;;;;5062736;28;20032;-71
2022/03/05 11:47:26;;;;;;;13.70;7.55;;;;;;;;;;5052228;28;20036;-71
2022/03/05 11:50:01;;;;;;;13.30;7.63;;;;;;;;;;5063396;28;20471;-70
2022/03/05 11:52:38;;;;;;;12.18;7.38;;;;;;;;;;5064764;28;20431;-73
2022/03/05 11:55:19;;;;;;;12.40;7.30;;;;;;;;;;5065180;28;20052;-71
2022/03/05 11:57:51;;;;;;;12.95;7.50;;;;;;;;;;5069198;28;20017;-71
2022/03/05 12:00:25;;;;;;;14.00;7.55;;;;;;;;;;5067919;28;20024;-73
2022/03/05 12:02:51;;;;;;;15.02;7.38;;;;;;;;;;5065422;28;20028;-73
2022/03/05 12:05:38;;;;;;;16.33;7.30;;;;;;;;;;5063545;28;20473;-71
2022/03/05 12:08:21;;;;;;;12.63;7.10;;;;;;;;;;5064378;28;20024;-71
2022/03/05 12:11:09;;;;;;;13.80;6.97;;;;;;;;;;5068024;28;20123;-72
2022/03/05 12:13:42;;;;;;;14.13;7.88;;;;;;;;;;5068316;28;20029;-73
2022/03/05 12:16:24;;;;;;;12.68;7.50;;;;;;;;;;5060303;28;20048;-72
2022/03/05 12:18:49;;;;;;;15.55;7.18;;;;;;;;;;5069230;28;20020;-73
2022/03/05 12:21:34;;;;;;;14.55;7.28;;;;;;;;;;5060189;28;20024;-73
2022/03/05 12:24:00;;;;;;;13.57;7.35;;;;;;;;;;5046266;28;20489;-73
2022/03/05 12:26:33;;;;;;;11.00;6.63;;;;;;;;;;5061990;28;20548;-73
2022/03/05 12:28:59;;;;;;;14.48;6.88;;;;;;;;;;5061085;28;20033;-73
2022/03/05 12:31:24;;;;;;;14.30;7.72;;;;;;;;;;5061324;28;20558;-73
2022/03/05 12:33:51;;;;;;;13.25;7.25;;;;;;;;;;5063186;28;20029;-73
2022/03/05 12:36:17;;;;;;;11.73;7.38;;;;;;;;;;5065644;28;20020;-73
2022/03/05 12:38:42;;;;;;;13.65;7.47;;;;;;;;;;5062287;28;20077;-73
2022/03/05 12:41:09;;;;;;;19.20;7.78;;;;;;;;;;5048230;28;20425;-73
2022/03/05 12:43:34;;;;;;;12.52;7.32;;;;;;;;;;5070472;28;20024;-73
2022/03/05 12:45:59;;;;;;;15.05;7.43;;;;;;;;;;5061628;28;20028;-73
2022/03/05 12:48:25;;;;;;;12.25;7.28;;;;;;;;;;5045348;28;20074;-73
2022/03/05 12:50:51;;;;;;;12.45;7.47;;;;;;;;;;5065311;28;20172;-73
2022/03/05 12:53:21;;;;;;;17.85;7.75;;;;;;;;;;5051773;28;20024;-73
2022/03/05 12:55:47;;;;;;;12.57;7.00;;;;;;;;;;5062934;28;20036;-73
2022/03/05 12:58:36;;;;;;;13.18;6.78;;;;;;;;;;5062955;28;20024;-73
2022/03/05 13:01:02;;;;;;;12.65;7.55;;;;;;;;;;5050035;28;20032;-73
2022/03/05 13:03:28;;;;;;;18.80;7.85;;;;;;;;;;5064180;28;21287;-73
2022/03/05 13:05:54;;;;;;;13.07;8.15;;;;;;;;;;5065166;28;20040;-73
2022/03/05 13:08:22;;;;;;;13.52;7.70;;;;;;;;;;5064715;28;20075;-73
2022/03/05 13:11:09;;;;;;;13.75;8.00;;;;;;;;;;5062899;28;20093;-73
2022/03/05 13:13:38;;;;;;;16.00;8.13;;;;;;;;;;5065226;28;20477;-74
2022/03/05 13:16:05;;;;;;;13.20;7.50;;;;;;;;;;5058332;28;20037;-73
2022/03/05 13:18:30;;;;;;;11.60;7.28;;;;;;;;;;5060974;28;20401;-73
2022/03/05 13:21:00;;;;;;;16.65;8.30;;;;;;;;;;5061123;28;20012;-73
2022/03/05 13:23:26;;;;;;;15.25;8.00;;;;;;;;;;5068258;28;20065;-73
2022/03/05 13:25:51;;;;;;;12.82;7.38;;;;;;;;;;5065536;28;20521;-73
2022/03/05 13:28:21;;;;;;;12.70;8.05;;;;;;;;;;5058853;28;20158;-73
2022/03/05 13:30:58;;;;;;;15.55;9.02;;;;;;;;;;5061127;28;20041;-73
2022/03/05 13:33:46;;;;;;;12.38;8.02;;;;;;;;;;5060536;28;20111;-73
2022/03/05 13:36:24;;;;;;;16.23;9.15;;;;;;;;;;5063570;28;20024;-72
2022/03/05 13:38:57;;;;;;;13.70;9.15;;;;;;;;;;5062324;28;20024;-73
2022/03/05 13:41:27;;;;;;;16.35;9.20;;;;;;;;;;5046818;28;20024;-73
2022/03/05 13:43:52;;;;;;;14.80;9.00;;;;;;;;;;5062602;28;20020;-73
2022/03/05 13:46:19;;;;;;;15.55;8.52;;;;;;;;;;5061693;28;20358;-74
2022/03/05 13:48:49;;;;;;;11.57;8.23;;;;;;;;;;5061952;28;20037;-74
2022/03/05 13:51:16;;;;;;;10.65;8.00;;;;;;;;;;5059021;28;20547;-73
2022/03/05 13:53:46;;;;;;;10.55;8.05;;;;;;;;;;5061202;28;20059;-73
2022/03/05 13:56:13;;;;;;;9.90;7.45;;;;;;;;;;5068976;28;20463;-73
2022/03/05 13:58:39;;;;;;;12.43;8.88;;;;;;;;;;5064087;28;20060;-72
2022/03/05 14:01:37;;;;;;;10.88;7.45;;;;;;;;;;5063864;28;20075;-73
2022/03/05 14:04:14;;;;;;;15.15;8.93;;;;;;;;;;5008031;28;20040;-73
2022/03/05 14:06:50;;;;;;;10.68;8.05;;;;;;;;;;5047356;28;20037;-73
2022/03/05 14:09:19;;;;;;;11.30;8.52;;;;;;;;;;5060776;28;20085;-73
2022/03/05 14:11:44;;;;;;;15.75;9.00;;;;;;;;;;5060347;28;20024;-72
2022/03/05 14:14:10;;;;;;;12.30;8.63;;;;;;;;;;5059921;28;20038;-73
2022/03/05 14:16:36;;;;;;;12.02;7.68;;;;;;;;;;5063373;28;20039;-73
2022/03/05 14:19:02;;;;;;;10.95;8.82;;;;;;;;;;5059867;28;20086;-73
2022/03/05 14:21:27;;;;;;;12.30;8.48;;;;;;;;;;5062321;28;20042;-73